ADDS METAR Data

Data at: 0508 UTC 20 Apr 2018

METAR for:KIWI (Wiscasset Arpt, ME, US)
Text:KIWI 200453Z AUTO 28003KT 10SM OVC080 03/01 A2976 RMK AO2 SLP078 T00330006 400720033
Temperature: 3.3°C ( 38°F)
Dewpoint: 0.6°C ( 33°F) [RH = 82%]
Pressure (altimeter):29.76 inches Hg (1007.9 mb) [Sea level pressure: 1007.8 mb]
Winds:from the W (280 degrees) at 3 MPH (3 knots; 1.5 m/s)
Visibility:10 or more sm (16+ km)
Ceiling:8000 feet AGL
Clouds: overcast cloud deck at 8000 feet AGL
QC Flag:automated observation with no human augmentation